Time;durP1;ratioP1;P1;durP2;ratioP2;P2;SDS_P1;SDS_P2;PMS_P1;PMS_P2;Temp;Humidity;BMP_temperature;BMP_pressure;BME280_temperature;BME280_humidity;BME280_pressure;Samples;Min_cycle;Max_cycle;Signal;HPM_P1;HPM_P2
2024/04/06 00:01:02;;;;;;;6.35;3.63;;;16.20;64.40;17.90;100959.00;;;;5028858;28;20685;-78
2024/04/06 00:03:28;;;;;;;5.78;3.63;;;16.20;64.40;17.90;100956.00;;;;5028356;28;20203;-78
2024/04/06 00:05:55;;;;;;;5.72;3.50;;;16.20;64.30;17.90;100942.00;;;;5043856;28;20581;-78
2024/04/06 00:08:21;;;;;;;6.57;2.95;;;16.20;64.30;17.90;100937.00;;;;5028996;28;20204;-78
2024/04/06 00:10:48;;;;;;;7.25;3.50;;;16.20;64.40;17.90;100946.00;;;;5028436;28;20210;-78
2024/04/06 00:13:14;;;;;;;4.63;3.03;;;16.20;64.40;17.90;100941.00;;;;5028450;28;20589;-78
2024/04/06 00:15:42;;;;;;;8.55;3.70;;;16.10;64.30;17.90;100954.00;;;;5028812;28;20192;-78
2024/04/06 00:18:08;;;;;;;4.40;2.85;;;16.20;64.30;17.90;100958.00;;;;5028458;28;20224;-78
2024/04/06 00:20:37;;;;;;;7.90;3.35;;;16.20;64.30;17.90;100957.00;;;;5028260;28;20200;-78
2024/04/06 00:23:03;;;;;;;5.38;3.20;;;16.20;64.40;17.90;100949.00;;;;5019438;28;20541;-77
2024/04/06 00:25:30;;;;;;;4.82;2.88;;;16.10;64.40;17.90;100955.00;;;;5027768;28;20201;-77
2024/04/06 00:27:56;;;;;;;5.38;3.10;;;16.20;64.50;17.90;100958.00;;;;5027955;28;20196;-77
2024/04/06 00:30:23;;;;;;;4.00;3.17;;;16.20;64.60;17.90;100957.00;;;;5028421;28;20558;-77
2024/04/06 00:32:50;;;;;;;4.70;2.95;;;16.20;64.60;17.90;100969.00;;;;5027406;28;20208;-77
2024/04/06 00:35:18;;;;;;;3.65;2.28;;;16.20;64.70;18.00;100968.00;;;;5028202;28;20220;-77
2024/04/06 00:37:45;;;;;;;5.65;2.58;;;16.20;64.70;18.00;100965.00;;;;5027479;28;20686;-78
2024/04/06 00:40:11;;;;;;;4.97;2.80;;;16.20;64.80;18.00;100964.00;;;;5019051;28;20718;-77
2024/04/06 00:42:38;;;;;;;4.40;3.03;;;16.20;64.80;18.00;100966.00;;;;5018730;28;20200;-77
2024/04/06 00:45:05;;;;;;;4.32;2.60;;;16.20;64.80;18.00;100961.00;;;;5028265;28;20208;-77
2024/04/06 00:47:32;;;;;;;6.00;3.05;;;16.20;64.80;18.00;100947.00;;;;5028797;28;20200;-77
2024/04/06 00:49:59;;;;;;;2.97;2.60;;;16.20;64.80;18.00;100951.00;;;;5027279;28;20624;-77
2024/04/06 00:52:26;;;;;;;5.70;3.10;;;16.30;64.90;18.00;100948.00;;;;5027314;28;20336;-77
2024/04/06 00:54:52;;;;;;;4.20;2.55;;;16.30;64.90;18.00;100950.00;;;;5027469;28;20204;-77
2024/04/06 00:57:19;;;;;;;5.20;2.55;;;16.30;64.90;18.00;100945.00;;;;5030765;28;20271;-77
2024/04/06 00:59:45;;;;;;;5.25;3.08;;;16.30;64.90;18.10;100948.00;;;;5028063;28;20204;-77
2024/04/06 01:02:12;;;;;;;7.32;3.53;;;16.30;65.00;18.10;100949.00;;;;5028374;28;20242;-77
2024/04/06 01:04:39;;;;;;;3.50;2.83;;;16.30;65.00;18.10;100940.00;;;;5027578;28;20199;-77
2024/04/06 01:07:08;;;;;;;5.13;2.92;;;16.30;65.00;18.10;100938.00;;;;5028940;28;20216;-78
2024/04/06 01:09:34;;;;;;;3.60;2.70;;;16.30;65.00;18.10;100934.00;;;;5028356;28;20192;-78
2024/04/06 01:12:01;;;;;;;3.47;2.65;;;16.30;65.00;18.10;100935.00;;;;5028513;28;20534;-78
2024/04/06 01:14:27;;;;;;;6.97;2.80;;;16.40;65.10;18.10;100924.00;;;;5028490;28;20204;-78
2024/04/06 01:16:54;;;;;;;4.78;2.92;;;16.40;65.10;18.10;100940.00;;;;5028365;28;20565;-78
2024/04/06 01:19:20;;;;;;;3.83;2.65;;;16.40;65.10;18.10;100944.00;;;;5027997;28;20173;-77
2024/04/06 01:21:47;;;;;;;5.78;2.80;;;16.40;65.20;18.20;100949.00;;;;5026411;28;20200;-78
2024/04/06 01:24:27;;;;;;;5.22;3.15;;;16.40;65.20;18.10;100948.00;;;;5026950;28;20215;-78
2024/04/06 01:26:54;;;;;;;4.38;2.42;;;16.40;65.50;18.20;100940.00;;;;5027120;28;20196;-78
2024/04/06 01:29:23;;;;;;;4.97;2.35;;;16.40;65.20;18.20;100935.00;;;;5031184;28;20665;-78
2024/04/06 01:31:50;;;;;;;5.68;3.25;;;16.40;65.20;18.20;100934.00;;;;5030452;28;20227;-78
2024/04/06 01:34:16;;;;;;;5.40;2.70;;;16.40;65.20;18.20;100941.00;;;;5027278;28;20658;-78
2024/04/06 01:36:43;;;;;;;2.95;2.33;;;16.50;65.30;18.20;100948.00;;;;5026260;28;20204;-77
2024/04/06 01:39:09;;;;;;;3.03;2.35;;;16.50;65.40;18.20;100936.00;;;;5028075;28;20231;-78
2024/04/06 01:41:39;;;;;;;2.97;2.55;;;16.50;65.40;18.20;100934.00;;;;5027208;28;20188;-78
2024/04/06 01:44:05;;;;;;;4.05;2.53;;;16.50;65.50;18.20;100930.00;;;;5027078;28;20643;-78
2024/04/06 01:46:33;;;;;;;3.60;2.30;;;16.50;65.50;18.30;100936.00;;;;5027671;28;20215;-77
2024/04/06 01:49:00;;;;;;;3.60;2.78;;;16.50;65.50;18.30;100929.00;;;;5026792;28;20189;-77
2024/04/06 01:51:28;;;;;;;4.50;2.30;;;16.50;65.50;18.30;100934.00;;;;5025249;28;20288;-77
2024/04/06 01:53:54;;;;;;;3.60;2.30;;;16.50;65.40;18.30;100937.00;;;;5027561;28;20200;-78
2024/04/06 01:56:21;;;;;;;4.18;2.60;;;16.60;65.50;18.30;100946.00;;;;5027239;28;20188;-78
2024/04/06 01:58:48;;;;;;;4.22;2.30;;;16.60;65.50;18.30;100941.00;;;;5026480;28;20240;-78
2024/04/06 02:01:16;;;;;;;5.50;2.45;;;16.60;65.50;18.30;100932.00;;;;5027604;28;20192;-79
2024/04/06 02:03:42;;;;;;;4.10;2.40;;;16.60;65.40;18.30;100933.00;;;;5032903;28;20204;-79
2024/04/06 02:06:09;;;;;;;4.00;2.35;;;16.60;65.40;18.30;100938.00;;;;5030713;28;20207;-77
2024/04/06 02:08:35;;;;;;;2.38;1.90;;;16.60;65.40;18.20;100945.00;;;;5026855;28;20229;-76
2024/04/06 02:11:03;;;;;;;2.88;2.20;;;16.60;65.40;18.20;100936.00;;;;5027366;28;20259;-77
2024/04/06 02:13:30;;;;;;;3.25;2.00;;;16.60;65.40;18.20;100930.00;;;;5030870;28;20200;-77
2024/04/06 02:15:58;;;;;;;3.08;2.30;;;16.50;65.40;18.20;100922.00;;;;5030071;28;20199;-77
2024/04/06 02:18:24;;;;;;;3.05;2.08;;;16.50;65.50;18.20;100906.00;;;;5030732;28;20761;-77
2024/04/06 02:20:52;;;;;;;3.50;2.35;;;16.50;65.60;18.20;100914.00;;;;5030031;28;20291;-76
2024/04/06 02:23:18;;;;;;;2.25;1.83;;;16.50;65.70;18.20;100923.00;;;;5029151;28;20662;-76
2024/04/06 02:25:45;;;;;;;4.53;2.25;;;16.50;65.80;18.20;100913.00;;;;5030768;28;20196;-77
2024/04/06 02:28:10;;;;;;;2.40;1.85;;;16.50;65.90;18.20;100920.00;;;;5030517;28;20200;-77
2024/04/06 02:30:38;;;;;;;2.47;1.70;;;16.50;66.00;18.20;100908.00;;;;5029163;28;20188;-76
2024/04/06 02:33:06;;;;;;;4.65;1.80;;;16.50;66.00;18.20;100909.00;;;;5030535;28;20220;-77
2024/04/06 02:35:32;;;;;;;3.20;1.70;;;16.50;66.20;18.20;100916.00;;;;5030101;28;21074;-77
2024/04/06 02:37:59;;;;;;;2.72;1.40;;;16.50;66.20;18.20;100911.00;;;;5039060;28;20247;-77
2024/04/06 02:40:26;;;;;;;3.50;1.88;;;16.50;66.20;18.20;100914.00;;;;5046742;28;20197;-77
2024/04/06 02:42:51;;;;;;;2.60;1.58;;;16.50;66.30;18.20;100920.00;;;;5030179;28;20196;-78
2024/04/06 02:45:18;;;;;;;2.10;1.50;;;16.50;66.40;18.20;100920.00;;;;5031130;28;20697;-78
2024/04/06 02:47:44;;;;;;;3.30;1.33;;;16.50;66.40;18.20;100926.00;;;;5031647;28;20200;-78
2024/04/06 02:50:13;;;;;;;2.45;1.52;;;16.50;66.50;18.10;100934.00;;;;5030227;28;20203;-78
2024/04/06 02:52:39;;;;;;;2.45;1.38;;;16.50;66.60;18.20;100931.00;;;;5030736;28;20718;-78
2024/04/06 02:55:06;;;;;;;2.80;1.85;;;16.50;66.60;18.20;100942.00;;;;5030734;28;20203;-78
2024/04/06 02:57:32;;;;;;;2.75;1.73;;;16.50;66.60;18.20;100939.00;;;;5030302;28;20706;-78
2024/04/06 02:59:59;;;;;;;1.67;1.50;;;16.50;66.70;18.10;100938.00;;;;5029691;28;20231;-78
2024/04/06 03:02:25;;;;;;;2.75;1.45;;;16.50;66.80;18.10;100924.00;;;;5030380;28;20200;-78
2024/04/06 03:04:52;;;;;;;3.05;1.50;;;16.50;66.80;18.10;100925.00;;;;5030599;28;20573;-78
2024/04/06 03:07:20;;;;;;;2.10;1.55;;;16.50;67.00;18.10;100920.00;;;;5029231;28;20219;-78
2024/04/06 03:09:47;;;;;;;4.13;1.88;;;16.50;67.10;18.10;100917.00;;;;5030091;28;20224;-78
2024/04/06 03:12:14;;;;;;;2.13;1.50;;;16.50;67.10;18.10;100908.00;;;;5030246;28;20204;-78
2024/04/06 03:14:41;;;;;;;2.45;1.40;;;16.50;67.10;18.10;100895.00;;;;5029255;28;20212;-78
2024/04/06 03:17:07;;;;;;;1.63;1.10;;;16.60;67.20;18.10;100898.00;;;;5028072;28;20227;-78
2024/04/06 03:19:33;;;;;;;3.13;1.23;;;16.50;67.20;18.10;100893.00;;;;5029733;28;20251;-78
2024/04/06 03:21:59;;;;;;;1.77;1.30;;;16.50;67.20;18.10;100882.00;;;;5028973;28;20573;-78
2024/04/06 03:24:27;;;;;;;2.13;1.50;;;16.50;67.10;18.10;100888.00;;;;5029007;28;20204;-77
2024/04/06 03:26:54;;;;;;;2.60;1.40;;;16.50;67.10;18.10;100889.00;;;;5030013;28;20191;-78
2024/04/06 03:29:20;;;;;;;2.88;1.20;;;16.50;67.10;18.10;100895.00;;;;5020545;28;20193;-78
2024/04/06 03:31:47;;;;;;;3.72;1.85;;;16.50;67.10;18.10;100883.00;;;;5024932;28;20289;-78
2024/04/06 03:34:13;;;;;;;3.40;1.50;;;16.50;67.10;18.10;100894.00;;;;5029470;28;20200;-78
2024/04/06 03:36:40;;;;;;;3.17;1.45;;;16.50;67.00;18.10;100887.00;;;;5029109;28;20216;-78
2024/04/06 03:39:08;;;;;;;1.70;1.40;;;16.50;67.10;18.10;100882.00;;;;5030207;28;20991;-78
2024/04/06 03:41:36;;;;;;;2.47;1.85;;;16.50;67.00;18.00;100890.00;;;;5028898;28;20216;-78
2024/04/06 03:44:03;;;;;;;2.65;1.48;;;16.40;67.00;18.00;100893.00;;;;5029947;28;20200;-78
2024/04/06 03:46:30;;;;;;;2.55;1.63;;;16.40;66.90;18.00;100879.00;;;;5029482;28;20200;-78
2024/04/06 03:48:56;;;;;;;3.15;1.90;;;16.40;66.90;18.00;100884.00;;;;5028791;28;20583;-78
2024/04/06 03:51:24;;;;;;;2.60;1.50;;;16.40;66.90;18.00;100880.00;;;;5026463;28;20570;-78
2024/04/06 03:53:51;;;;;;;1.88;1.30;;;16.40;67.00;18.00;100882.00;;;;5029276;28;20554;-78
2024/04/06 03:56:18;;;;;;;1.98;1.40;;;16.40;67.00;18.00;100900.00;;;;5029425;28;20259;-78
2024/04/06 03:58:45;;;;;;;2.50;1.48;;;16.30;66.80;17.90;100892.00;;;;5026974;28;20235;-78
2024/04/06 04:01:12;;;;;;;3.67;1.60;;;16.30;67.60;17.90;100890.00;;;;5028848;28;20200;-78
2024/04/06 04:03:38;;;;;;;2.88;1.70;;;16.30;66.90;17.90;100890.00;;;;5030619;28;20208;-78
2024/04/06 04:06:06;;;;;;;2.13;1.67;;;16.30;66.90;17.90;100883.00;;;;5028857;28;20192;-78
2024/04/06 04:08:33;;;;;;;1.90;1.23;;;16.30;67.60;17.90;100873.00;;;;5028590;28;20209;-78
2024/04/06 04:11:00;;;;;;;2.20;1.85;;;16.30;66.90;17.90;100873.00;;;;5027822;28;20204;-78
2024/04/06 04:13:25;;;;;;;2.50;1.65;;;16.20;66.80;17.80;100871.00;;;;5028453;28;20212;-78
2024/04/06 04:15:54;;;;;;;3.78;1.73;;;16.20;67.00;17.80;100859.00;;;;5028320;28;20750;-78
2024/04/06 04:18:21;;;;;;;3.42;1.67;;;16.20;67.10;17.80;100863.00;;;;5028238;28;20285;-78
2024/04/06 04:20:48;;;;;;;3.30;1.42;;;16.20;67.20;17.80;100847.00;;;;5024345;28;20226;-78
2024/04/06 04:23:14;;;;;;;3.80;2.10;;;16.20;67.20;17.80;100862.00;;;;5027516;28;20211;-78
2024/04/06 04:25:41;;;;;;;2.88;1.80;;;16.10;67.20;17.80;100859.00;;;;5028043;28;20201;-78
2024/04/06 04:28:07;;;;;;;4.80;1.63;;;16.20;67.40;17.80;100853.00;;;;5024962;28;20197;-78
2024/04/06 04:30:34;;;;;;;3.15;1.95;;;16.20;67.50;17.70;100851.00;;;;5026993;28;20203;-78
2024/04/06 04:33:01;;;;;;;2.28;1.40;;;16.10;67.50;17.70;100839.00;;;;5028163;28;20574;-78
2024/04/06 04:35:28;;;;;;;3.28;1.80;;;16.10;67.60;17.70;100845.00;;;;5027401;28;20608;-78
2024/04/06 04:37:54;;;;;;;2.47;1.42;;;16.10;67.60;17.70;100843.00;;;;5028114;28;20216;-79
2024/04/06 04:40:21;;;;;;;2.45;1.63;;;16.10;67.70;17.70;100846.00;;;;5027544;28;20204;-78
2024/04/06 04:42:47;;;;;;;2.90;2.08;;;16.10;67.80;17.70;100836.00;;;;5027249;28;21025;-78
2024/04/06 04:45:15;;;;;;;2.00;1.63;;;16.10;67.90;17.70;100844.00;;;;5028229;28;20202;-78
2024/04/06 04:47:42;;;;;;;1.88;1.48;;;16.10;68.00;17.70;100833.00;;;;5027950;28;20214;-78
2024/04/06 04:50:11;;;;;;;1.63;1.40;;;16.10;68.10;17.70;100839.00;;;;5028351;28;20200;-78
2024/04/06 04:52:37;;;;;;;2.25;1.65;;;16.10;68.90;17.70;100826.00;;;;5027371;28;20203;-78
2024/04/06 04:55:05;;;;;;;3.60;1.80;;;16.10;68.30;17.70;100823.00;;;;5028531;28;20212;-78
2024/04/06 04:57:31;;;;;;;2.40;1.45;;;16.20;68.40;17.70;100812.00;;;;5027667;28;20204;-78
2024/04/06 04:59:58;;;;;;;1.85;1.50;;;16.10;68.50;17.80;100817.00;;;;5027248;28;20577;-78
2024/04/06 05:02:24;;;;;;;3.97;1.73;;;16.20;68.60;17.80;100818.00;;;;5028142;28;20299;-79
2024/04/06 05:04:51;;;;;;;1.95;1.58;;;16.20;68.70;17.80;100820.00;;;;5027203;28;20200;-78
2024/04/06 05:07:21;;;;;;;2.35;1.42;;;16.20;68.70;17.80;100821.00;;;;5027590;28;20562;-78
2024/04/06 05:09:48;;;;;;;2.03;1.40;;;16.20;68.80;17.80;100811.00;;;;5027171;28;20205;-78
2024/04/06 05:12:14;;;;;;;2.97;1.20;;;16.20;68.70;17.80;100816.00;;;;5028145;28;20200;-78
2024/04/06 05:14:41;;;;;;;1.67;1.58;;;16.20;68.80;17.80;100810.00;;;;5027083;28;20211;-78
2024/04/06 05:17:07;;;;;;;2.15;1.50;;;16.20;68.90;17.80;100808.00;;;;5027788;28;20666;-78
2024/04/06 05:19:34;;;;;;;3.33;1.20;;;16.30;68.90;17.80;100803.00;;;;5027189;28;20220;-78
2024/04/06 05:22:01;;;;;;;1.70;1.50;;;16.30;69.00;17.90;100804.00;;;;5027066;28;20299;-78
2024/04/06 05:24:29;;;;;;;1.50;1.40;;;16.30;68.90;17.90;100802.00;;;;5028549;28;20224;-78
2024/04/06 05:26:56;;;;;;;2.88;1.42;;;16.30;69.00;17.90;100806.00;;;;5027388;28;20188;-78
2024/04/06 05:29:23;;;;;;;1.48;1.38;;;16.30;69.00;17.90;100816.00;;;;5027037;28;20250;-79
2024/04/06 05:31:50;;;;;;;1.90;1.40;;;16.30;69.00;17.90;100816.00;;;;5028363;28;20200;-78
2024/04/06 05:34:17;;;;;;;3.63;1.40;;;16.30;69.00;17.90;100818.00;;;;5027992;28;20192;-78
2024/04/06 05:36:43;;;;;;;3.03;1.35;;;16.40;69.10;18.00;100817.00;;;;5026741;28;20196;-79
2024/04/06 05:39:10;;;;;;;2.63;1.25;;;16.40;69.10;18.00;100810.00;;;;5025543;28;20230;-78
2024/04/06 05:41:38;;;;;;;2.47;1.73;;;16.40;69.10;18.00;100800.00;;;;5024859;28;20555;-77
2024/04/06 05:44:05;;;;;;;4.47;1.73;;;16.40;69.10;18.10;100801.00;;;;5025042;28;20192;-77
2024/04/06 05:49:02;;;;;;;1.88;1.30;;;16.50;69.10;18.10;100793.00;;;;4636804;28;10001695;-78
2024/04/06 05:51:29;;;;;;;2.45;1.25;;;16.50;69.20;18.20;100798.00;;;;4980376;28;20232;-78
2024/04/06 05:53:56;;;;;;;4.68;1.85;;;16.50;69.80;18.20;100799.00;;;;4985289;28;20336;-78
2024/04/06 05:56:22;;;;;;;2.42;1.73;;;16.60;69.20;18.20;100799.00;;;;4989699;28;20211;-78
2024/04/06 05:58:51;;;;;;;2.50;1.60;;;16.60;69.20;18.20;100809.00;;;;4988318;28;20225;-78
2024/04/06 06:01:17;;;;;;;5.43;1.88;;;16.60;69.20;18.30;100792.00;;;;4987929;28;20573;-78
2024/04/06 06:03:44;;;;;;;2.15;1.95;;;16.60;69.20;18.30;100788.00;;;;4984377;28;20206;-78
2024/04/06 06:06:10;;;;;;;2.53;2.00;;;16.60;69.20;18.40;100797.00;;;;4979931;28;20553;-78
2024/04/06 06:08:38;;;;;;;2.92;2.22;;;16.70;69.30;18.40;100805.00;;;;4988124;28;20232;-78
2024/04/06 06:11:05;;;;;;;2.42;2.08;;;16.70;69.20;18.40;100814.00;;;;4988460;28;20243;-78
2024/04/06 06:13:32;;;;;;;2.42;2.00;;;16.80;69.30;18.40;100808.00;;;;4990399;28;20287;-78
2024/04/06 06:16:01;;;;;;;3.15;1.85;;;16.80;69.30;18.50;100807.00;;;;4989644;28;20193;-78
2024/04/06 06:18:28;;;;;;;2.17;1.92;;;16.80;69.20;18.50;100815.00;;;;4992081;28;20240;-78
2024/04/06 06:20:54;;;;;;;5.20;2.05;;;16.90;69.30;18.50;100821.00;;;;4993603;28;20209;-78
2024/04/06 06:23:21;;;;;;;6.97;2.40;;;16.90;69.30;18.60;100830.00;;;;4988793;28;20204;-77
2024/04/06 06:25:47;;;;;;;5.45;2.53;;;16.90;69.30;18.60;100826.00;;;;4986095;28;20210;-77
2024/04/06 06:28:14;;;;;;;7.82;2.60;;;17.00;69.40;18.70;100836.00;;;;4979036;28;20288;-78
2024/04/06 06:30:41;;;;;;;4.43;2.42;;;17.00;69.40;18.70;100833.00;;;;4987673;28;20214;-78
2024/04/06 06:33:09;;;;;;;3.75;2.53;;;17.10;69.50;18.80;100831.00;;;;4989122;28;20209;-78
2024/04/06 06:35:36;;;;;;;11.80;2.70;;;17.20;69.50;18.90;100830.00;;;;4980736;28;20217;-78
2024/04/06 06:38:03;;;;;;;6.78;2.45;;;17.20;69.50;18.90;100830.00;;;;4984974;28;20194;-80
2024/04/06 06:40:29;;;;;;;2.80;2.22;;;17.30;69.40;19.00;100836.00;;;;4989350;28;20190;-80
2024/04/06 06:42:56;;;;;;;2.97;1.90;;;17.30;69.30;19.10;100832.00;;;;4985746;28;20223;-80
2024/04/06 06:45:22;;;;;;;3.08;1.88;;;17.40;69.30;19.10;100838.00;;;;4983379;28;20216;-81
2024/04/06 06:47:49;;;;;;;2.83;2.28;;;17.50;69.30;19.20;100824.00;;;;4999120;28;20234;-80
2024/04/06 06:50:17;;;;;;;2.70;2.00;;;17.50;69.20;19.20;100835.00;;;;4978611;28;20202;-80
2024/04/06 06:52:44;;;;;;;4.18;2.13;;;17.60;69.20;19.30;100828.00;;;;4979613;28;20193;-80
2024/04/06 06:55:10;;;;;;;2.28;1.90;;;17.70;69.20;19.40;100839.00;;;;4987088;28;20194;-82
2024/04/06 06:57:37;;;;;;;2.30;1.90;;;17.70;69.10;19.50;100824.00;;;;4986767;28;20201;-83
2024/04/06 07:00:04;;;;;;;3.88;2.17;;;17.80;69.10;19.50;100819.00;;;;4977875;28;20675;-82
2024/04/06 07:02:31;;;;;;;5.03;2.05;;;17.90;69.00;19.60;100815.00;;;;4970459;28;20236;-81
2024/04/06 07:04:57;;;;;;;4.93;2.20;;;17.90;68.90;19.70;100810.00;;;;4994151;28;20754;-81
2024/04/06 07:07:26;;;;;;;2.67;1.77;;;18.00;68.90;19.70;100813.00;;;;4987826;28;20253;-81
2024/04/06 07:09:52;;;;;;;2.40;1.85;;;18.10;68.80;19.80;100808.00;;;;4988457;28;20719;-81
2024/04/06 07:12:19;;;;;;;5.88;2.28;;;18.20;68.80;19.90;100814.00;;;;4987629;28;20197;-81
2024/04/06 07:14:45;;;;;;;2.42;1.98;;;18.30;68.70;20.00;100811.00;;;;4969595;28;20206;-81
2024/04/06 07:17:12;;;;;;;3.35;1.70;;;18.40;68.60;20.10;100805.00;;;;4986659;28;20668;-82
2024/04/06 07:19:38;;;;;;;2.72;1.70;;;18.40;68.50;20.20;100794.00;;;;4988690;28;20240;-81
2024/04/06 07:22:05;;;;;;;2.35;1.80;;;18.50;68.40;20.20;100785.00;;;;4969026;28;20226;-81
2024/04/06 07:24:32;;;;;;;3.13;1.92;;;18.60;68.20;20.30;100794.00;;;;4987465;28;20687;-81
2024/04/06 07:26:59;;;;;;;1.98;1.63;;;18.70;68.20;20.40;100781.00;;;;4988925;28;20210;-81
2024/04/06 07:29:25;;;;;;;2.80;1.90;;;18.80;68.10;20.50;100779.00;;;;4988664;28;20201;-81
2024/04/06 07:31:52;;;;;;;2.97;1.80;;;18.90;68.00;20.60;100776.00;;;;4988170;28;20208;-82
2024/04/06 07:34:18;;;;;;;2.75;1.83;;;19.00;67.80;20.60;100779.00;;;;4988234;28;20209;-81
2024/04/06 07:36:45;;;;;;;4.10;1.77;;;19.00;67.70;20.70;100774.00;;;;4988298;28;20589;-81
2024/04/06 07:39:11;;;;;;;4.72;2.03;;;19.10;67.50;20.80;100760.00;;;;4988749;28;20225;-82
2024/04/06 07:41:39;;;;;;;1.92;1.60;;;19.20;67.40;20.80;100765.00;;;;4988497;28;20198;-82
2024/04/06 07:44:05;;;;;;;4.90;2.05;;;19.30;67.30;20.90;100761.00;;;;4988673;28;20206;-82
2024/04/06 07:46:33;;;;;;;2.80;1.60;;;19.30;67.10;21.00;100759.00;;;;4989561;28;20574;-81
2024/04/06 07:48:59;;;;;;;4.43;1.50;;;19.40;67.10;21.10;100771.00;;;;4990690;28;20233;-82
2024/04/06 07:51:25;;;;;;;3.05;1.55;;;19.50;67.00;21.10;100765.00;;;;4992008;28;20201;-81
2024/04/06 07:53:51;;;;;;;4.10;1.48;;;19.50;67.00;21.20;100762.00;;;;4991201;28;20202;-81
2024/04/06 07:56:18;;;;;;;1.98;1.75;;;19.60;66.90;21.30;100764.00;;;;4991428;28;20559;-81
2024/04/06 07:58:46;;;;;;;2.60;1.52;;;19.70;66.80;21.40;100758.00;;;;4988224;28;20328;-82
2024/04/06 08:01:13;;;;;;;3.15;1.48;;;19.80;66.60;21.50;100757.00;;;;4988322;28;20237;-79
2024/04/06 08:03:38;;;;;;;3.90;1.85;;;19.90;66.60;21.60;100756.00;;;;4988826;28;20226;-78
2024/04/06 08:06:06;;;;;;;4.35;1.75;;;20.00;66.50;21.80;100754.00;;;;4989102;28;20209;-80
2024/04/06 08:08:34;;;;;;;5.25;1.77;;;20.10;66.60;21.90;100746.00;;;;4988742;28;20228;-81
2024/04/06 08:11:01;;;;;;;2.20;1.48;;;20.20;66.40;22.00;100743.00;;;;4986951;28;20281;-80
2024/04/06 08:13:27;;;;;;;3.42;1.23;;;20.30;66.30;22.00;100740.00;;;;4994913;28;20718;-81
2024/04/06 08:15:56;;;;;;;1.80;1.35;;;20.40;66.00;22.10;100734.00;;;;4996745;28;20208;-81
2024/04/06 08:18:22;;;;;;;1.95;1.30;;;20.40;65.70;22.20;100735.00;;;;4998334;28;20209;-80
2024/04/06 08:20:49;;;;;;;2.38;1.60;;;20.50;65.50;22.30;100727.00;;;;5005875;28;20312;-80
2024/04/06 08:23:17;;;;;;;2.45;1.45;;;20.70;65.40;22.30;100733.00;;;;5006895;28;20193;-80
2024/04/06 08:25:44;;;;;;;1.92;1.20;;;20.70;65.10;22.40;100728.00;;;;5006726;28;20741;-81
2024/04/06 08:28:11;;;;;;;2.70;1.42;;;20.80;65.00;22.40;100725.00;;;;5007422;28;20564;-81
2024/04/06 08:30:39;;;;;;;2.10;1.30;;;20.90;64.70;22.50;100728.00;;;;5002649;28;20197;-80
2024/04/06 08:33:07;;;;;;;3.17;1.50;;;20.90;64.60;22.60;100734.00;;;;4986823;28;20731;-80
2024/04/06 08:35:36;;;;;;;3.05;1.50;;;21.00;64.50;22.60;100728.00;;;;4987304;28;20249;-82
2024/04/06 08:38:03;;;;;;;2.90;1.45;;;21.10;64.30;22.70;100726.00;;;;4986383;28;20715;-80
2024/04/06 08:40:30;;;;;;;2.97;1.25;;;21.20;64.40;22.80;100713.00;;;;4988116;28;20723;-81
2024/04/06 08:42:58;;;;;;;6.07;1.48;;;21.20;64.10;22.90;100718.00;;;;4982065;28;20202;-80
2024/04/06 08:45:28;;;;;;;1.25;1.08;;;21.30;64.00;22.90;100722.00;;;;4971855;28;20824;-81
2024/04/06 08:47:55;;;;;;;1.75;1.05;;;21.40;64.10;23.10;100717.00;;;;4988460;28;20579;-80
2024/04/06 08:50:24;;;;;;;1.67;1.33;;;21.50;64.20;23.20;100718.00;;;;4989310;28;20205;-81
2024/04/06 08:52:50;;;;;;;1.90;1.55;;;21.60;64.20;23.40;100719.00;;;;5004007;28;20749;-80
2024/04/06 08:55:17;;;;;;;4.25;1.67;;;21.80;64.20;23.60;100718.00;;;;5005142;28;20199;-80
2024/04/06 08:57:45;;;;;;;3.05;1.20;;;21.90;63.90;23.70;100725.00;;;;4988454;28;20205;-81
2024/04/06 09:00:13;;;;;;;1.65;1.25;;;22.00;63.70;23.80;100733.00;;;;4989444;28;20221;-82
2024/04/06 09:02:41;;;;;;;3.40;1.83;;;22.20;63.50;23.90;100718.00;;;;4989210;28;20744;-81
2024/04/06 09:05:08;;;;;;;4.00;1.42;;;22.30;63.00;24.10;100720.00;;;;4987487;28;20213;-81
2024/04/06 09:07:35;;;;;;;2.15;1.20;;;22.40;63.00;24.20;100715.00;;;;4988369;28;20300;-81
2024/04/06 09:10:03;;;;;;;1.80;1.17;;;22.50;62.60;24.30;100711.00;;;;4989811;28;20213;-81
2024/04/06 09:12:29;;;;;;;2.38;1.20;;;22.70;62.00;24.40;100710.00;;;;4988428;28;20201;-82
2024/04/06 09:14:56;;;;;;;5.13;1.85;;;22.80;62.10;24.50;100704.00;;;;4985626;28;20201;-80
2024/04/06 09:17:22;;;;;;;2.22;1.10;;;22.90;61.70;24.60;100699.00;;;;4987887;28;20209;-81
2024/04/06 09:19:49;;;;;;;4.43;1.50;;;23.00;61.70;24.70;100702.00;;;;4988474;28;20253;-81
2024/04/06 09:22:16;;;;;;;1.23;1.08;;;23.10;61.30;24.80;100685.00;;;;4988405;28;20197;-80
2024/04/06 09:24:44;;;;;;;2.92;1.50;;;23.20;61.20;24.90;100689.00;;;;4987994;28;20268;-80
2024/04/06 09:27:12;;;;;;;3.60;1.77;;;23.30;61.20;25.00;100691.00;;;;4988898;28;20265;-81
2024/04/06 09:29:46;;;;;;;1.85;1.00;;;23.40;61.10;25.10;100685.00;;;;4989006;28;20660;-80
2024/04/06 09:32:14;;;;;;;2.95;1.58;;;23.50;61.00;25.20;100673.00;;;;4986833;28;20699;-82
2024/04/06 09:34:52;;;;;;;2.47;1.50;;;23.60;60.50;25.20;100671.00;;;;4988385;28;20212;-80
2024/04/06 09:37:32;;;;;;;1.40;1.30;;;23.70;59.60;25.30;100666.00;;;;4987431;28;20201;-80
2024/04/06 09:40:01;;;;;;;2.00;1.38;;;23.80;59.80;25.40;100663.00;;;;4988149;28;20225;-80
2024/04/06 09:42:29;;;;;;;2.67;1.30;;;23.80;59.70;25.50;100658.00;;;;4992213;28;20204;-80
2024/04/06 09:44:57;;;;;;;1.98;1.52;;;23.90;59.50;25.60;100654.00;;;;4997736;28;20198;-80
2024/04/06 09:47:23;;;;;;;1.65;1.33;;;24.00;59.30;25.60;100639.00;;;;4988049;28;20233;-80
2024/04/06 09:49:51;;;;;;;1.77;1.20;;;24.10;59.20;25.70;100638.00;;;;4987674;28;20202;-81
2024/04/06 09:52:18;;;;;;;4.53;1.52;;;24.10;59.00;25.70;100648.00;;;;4986689;28;20204;-80
2024/04/06 09:54:47;;;;;;;2.85;1.23;;;24.20;59.00;25.80;100650.00;;;;4987431;28;20600;-81
2024/04/06 09:57:16;;;;;;;3.85;1.38;;;24.20;58.80;25.80;100644.00;;;;4986512;28;20609;-81
2024/04/06 09:59:43;;;;;;;4.53;1.52;;;24.20;58.20;25.80;100633.00;;;;4988497;28;20229;-81
2024/04/06 10:02:09;;;;;;;2.50;1.30;;;24.30;58.30;25.80;100634.00;;;;4987641;28;20612;-82
2024/04/06 10:04:38;;;;;;;3.85;1.38;;;24.30;58.10;25.80;100627.00;;;;4987775;28;20575;-81
2024/04/06 10:07:06;;;;;;;1.60;1.30;;;24.40;58.00;25.80;100619.00;;;;4986313;28;20221;-81
2024/04/06 10:09:35;;;;;;;1.80;1.10;;;24.40;57.70;25.90;100614.00;;;;4988458;28;20225;-81
2024/04/06 10:12:05;;;;;;;5.85;1.30;;;24.40;57.70;25.90;100612.00;;;;4987597;28;20770;-81
2024/04/06 10:14:33;;;;;;;1.98;1.05;;;24.50;57.40;26.00;100616.00;;;;4987014;28;20209;-81
2024/04/06 10:17:07;;;;;;;2.60;1.70;;;24.50;57.70;26.00;100621.00;;;;4982256;28;20206;-81
2024/04/06 10:19:35;;;;;;;1.98;1.08;;;24.60;57.30;26.20;100625.00;;;;4987415;28;20711;-81
2024/04/06 10:22:06;;;;;;;1.73;1.20;;;24.60;57.20;26.20;100639.00;;;;4988531;28;20210;-81
2024/04/06 10:24:35;;;;;;;1.58;0.90;;;24.70;57.30;26.20;100635.00;;;;4987714;28;20197;-81
2024/04/06 10:27:02;;;;;;;1.50;0.98;;;24.70;57.30;26.30;100644.00;;;;4987279;28;20213;-81
2024/04/06 10:29:31;;;;;;;2.38;1.35;;;24.90;57.40;26.40;100641.00;;;;4987737;28;20205;-82
2024/04/06 10:31:58;;;;;;;2.78;1.17;;;24.90;57.20;26.40;100627.00;;;;4986655;28;20297;-81
2024/04/06 10:34:27;;;;;;;2.10;1.33;;;24.90;57.20;26.50;100636.00;;;;4991910;28;20469;-81
2024/04/06 10:36:53;;;;;;;1.58;1.20;;;25.00;57.10;26.60;100632.00;;;;4991204;28;20190;-80
2024/04/06 10:39:20;;;;;;;3.22;1.35;;;25.10;57.10;26.60;100628.00;;;;4974950;28;20995;-81
2024/04/06 10:41:49;;;;;;;2.55;1.17;;;25.10;57.00;26.70;100631.00;;;;4981916;28;20569;-80
2024/04/06 10:44:16;;;;;;;2.55;1.10;;;25.20;56.90;26.80;100625.00;;;;4979015;28;20257;-80
2024/04/06 10:46:42;;;;;;;2.88;1.02;;;25.30;56.90;26.90;100626.00;;;;4984710;28;20214;-80
2024/04/06 10:49:14;;;;;;;1.60;0.98;;;25.30;57.00;27.00;100624.00;;;;4991805;28;20999;-80